sensor_id;sensor_type;location;lat;lon;timestamp;pressure;altitude;pressure_sealevel;temperature;humidity
46379;BME280;32084;42.254;22.744;2023-03-15T00:02:07;94171.97;;;6.06;58.91
46379;BME280;32084;42.254;22.744;2023-03-15T00:04:33;94175.16;;;6.10;59.56
46379;BME280;32084;42.254;22.744;2023-03-15T00:06:59;94175.56;;;5.97;59.37
46379;BME280;32084;42.254;22.744;2023-03-15T00:09:26;94171.75;;;5.99;60.40
46379;BME280;32084;42.254;22.744;2023-03-15T00:11:52;94175.41;;;5.98;60.80
46379;BME280;32084;42.254;22.744;2023-03-15T00:14:21;94180.53;;;5.74;59.64
46379;BME280;32084;42.254;22.744;2023-03-15T00:16:47;94172.56;;;5.74;60.32
46379;BME280;32084;42.254;22.744;2023-03-15T00:19:15;94179.13;;;5.87;60.50
46379;BME280;32084;42.254;22.744;2023-03-15T00:21:41;94180.56;;;6.00;60.31
46379;BME280;32084;42.254;22.744;2023-03-15T00:24:09;94174.34;;;6.17;59.69
46379;BME280;32084;42.254;22.744;2023-03-15T00:26:36;94169.22;;;6.24;59.05
46379;BME280;32084;42.254;22.744;2023-03-15T00:29:02;94163.88;;;6.08;59.60
46379;BME280;32084;42.254;22.744;2023-03-15T00:31:28;94157.88;;;6.05;59.93
46379;BME280;32084;42.254;22.744;2023-03-15T00:33:54;94163.53;;;6.11;59.80
46379;BME280;32084;42.254;22.744;2023-03-15T00:36:21;94172.94;;;6.31;59.57
46379;BME280;32084;42.254;22.744;2023-03-15T00:38:54;94172.28;;;6.37;59.24
46379;BME280;32084;42.254;22.744;2023-03-15T00:41:20;94162.03;;;6.08;60.33
46379;BME280;32084;42.254;22.744;2023-03-15T00:43:46;94155.25;;;5.87;60.59
46379;BME280;32084;42.254;22.744;2023-03-15T00:46:13;94152.38;;;5.99;59.82
46379;BME280;32084;42.254;22.744;2023-03-15T00:48:39;94153.56;;;6.04;59.83
46379;BME280;32084;42.254;22.744;2023-03-15T00:51:12;94158.81;;;6.22;59.32
46379;BME280;32084;42.254;22.744;2023-03-15T00:53:40;94154.16;;;6.24;60.12
46379;BME280;32084;42.254;22.744;2023-03-15T00:56:11;94153.91;;;6.10;60.54
46379;BME280;32084;42.254;22.744;2023-03-15T00:58:38;94148.25;;;6.04;60.95
46379;BME280;32084;42.254;22.744;2023-03-15T01:01:07;94147.66;;;5.93;61.03
46379;BME280;32084;42.254;22.744;2023-03-15T01:03:34;94150.53;;;5.99;60.90
46379;BME280;32084;42.254;22.744;2023-03-15T01:06:04;94145.97;;;6.10;60.56
46379;BME280;32084;42.254;22.744;2023-03-15T01:08:30;94140.66;;;6.10;60.48
46379;BME280;32084;42.254;22.744;2023-03-15T01:11:00;94138.81;;;6.10;60.58
46379;BME280;32084;42.254;22.744;2023-03-15T01:13:26;94138.69;;;6.20;61.01
46379;BME280;32084;42.254;22.744;2023-03-15T01:15:52;94129.78;;;6.29;60.66
46379;BME280;32084;42.254;22.744;2023-03-15T01:18:18;94127.16;;;6.37;60.83
46379;BME280;32084;42.254;22.744;2023-03-15T01:20:44;94122.03;;;6.44;61.06
46379;BME280;32084;42.254;22.744;2023-03-15T01:23:10;94107.22;;;6.25;62.00
46379;BME280;32084;42.254;22.744;2023-03-15T01:25:36;94105.22;;;6.27;61.54
46379;BME280;32084;42.254;22.744;2023-03-15T01:28:02;94102.50;;;6.11;62.55
46379;BME280;32084;42.254;22.744;2023-03-15T01:30:28;94099.56;;;6.22;61.99
46379;BME280;32084;42.254;22.744;2023-03-15T01:32:54;94099.13;;;6.43;61.33
46379;BME280;32084;42.254;22.744;2023-03-15T01:35:20;94102.34;;;6.55;61.16
46379;BME280;32084;42.254;22.744;2023-03-15T01:37:50;94100.00;;;6.60;61.44
46379;BME280;32084;42.254;22.744;2023-03-15T01:40:16;94097.84;;;6.55;63.15
46379;BME280;32084;42.254;22.744;2023-03-15T01:42:52;94090.69;;;6.48;62.14
46379;BME280;32084;42.254;22.744;2023-03-15T01:48:03;94087.22;;;6.63;62.35
46379;BME280;32084;42.254;22.744;2023-03-15T01:50:29;94089.56;;;6.75;61.88
46379;BME280;32084;42.254;22.744;2023-03-15T01:52:55;94083.44;;;6.82;62.77
46379;BME280;32084;42.254;22.744;2023-03-15T01:55:21;94088.13;;;6.89;62.70
46379;BME280;32084;42.254;22.744;2023-03-15T01:57:49;94099.06;;;6.94;61.89
46379;BME280;32084;42.254;22.744;2023-03-15T02:00:17;94096.56;;;6.92;61.96
46379;BME280;32084;42.254;22.744;2023-03-15T02:02:54;94092.94;;;6.93;62.56
46379;BME280;32084;42.254;22.744;2023-03-15T02:05:23;94094.75;;;6.93;64.02
46379;BME280;32084;42.254;22.744;2023-03-15T02:07:50;94083.75;;;6.71;63.80
46379;BME280;32084;42.254;22.744;2023-03-15T02:10:20;94082.06;;;6.45;64.30
46379;BME280;32084;42.254;22.744;2023-03-15T02:12:50;94089.06;;;6.63;63.35
46379;BME280;32084;42.254;22.744;2023-03-15T02:15:17;94091.56;;;6.73;64.54
46379;BME280;32084;42.254;22.744;2023-03-15T02:17:44;94087.75;;;6.75;64.66
46379;BME280;32084;42.254;22.744;2023-03-15T02:22:53;94058.50;;;6.51;64.27
46379;BME280;32084;42.254;22.744;2023-03-15T02:25:25;94049.03;;;6.40;64.75
46379;BME280;32084;42.254;22.744;2023-03-15T02:27:54;94051.81;;;6.30;65.54
46379;BME280;32084;42.254;22.744;2023-03-15T02:30:21;94048.56;;;6.53;64.66
46379;BME280;32084;42.254;22.744;2023-03-15T02:32:48;94053.03;;;6.60;65.00
46379;BME280;32084;42.254;22.744;2023-03-15T02:35:24;94055.19;;;6.65;65.15
46379;BME280;32084;42.254;22.744;2023-03-15T02:37:50;94047.03;;;6.50;65.89
46379;BME280;32084;42.254;22.744;2023-03-15T02:40:17;94036.88;;;6.37;66.16
46379;BME280;32084;42.254;22.744;2023-03-15T02:42:43;94048.50;;;6.36;65.73
46379;BME280;32084;42.254;22.744;2023-03-15T02:45:10;94036.06;;;6.37;66.30
46379;BME280;32084;42.254;22.744;2023-03-15T02:47:36;94036.72;;;6.31;66.95
46379;BME280;32084;42.254;22.744;2023-03-15T02:50:03;94023.53;;;6.13;66.47
46379;BME280;32084;42.254;22.744;2023-03-15T02:52:30;94015.16;;;5.91;67.21
46379;BME280;32084;42.254;22.744;2023-03-15T02:54:56;94013.94;;;6.03;67.06
46379;BME280;32084;42.254;22.744;2023-03-15T02:57:22;94024.91;;;6.25;67.51
46379;BME280;32084;42.254;22.744;2023-03-15T02:59:48;94020.63;;;6.40;66.96
46379;BME280;32084;42.254;22.744;2023-03-15T03:02:17;94019.66;;;6.50;67.27
46379;BME280;32084;42.254;22.744;2023-03-15T03:04:43;94016.03;;;6.51;67.47
46379;BME280;32084;42.254;22.744;2023-03-15T03:07:10;94022.63;;;6.47;67.34
46379;BME280;32084;42.254;22.744;2023-03-15T03:09:36;94016.28;;;6.15;67.67
46379;BME280;32084;42.254;22.744;2023-03-15T03:12:02;94013.41;;;6.00;68.18
46379;BME280;32084;42.254;22.744;2023-03-15T03:14:28;94011.59;;;6.00;68.46
46379;BME280;32084;42.254;22.744;2023-03-15T03:16:54;94008.78;;;6.10;68.21
46379;BME280;32084;42.254;22.744;2023-03-15T03:19:20;94004.53;;;6.34;67.50
46379;BME280;32084;42.254;22.744;2023-03-15T03:21:50;94002.91;;;6.49;67.66
46379;BME280;32084;42.254;22.744;2023-03-15T03:24:18;94003.06;;;6.56;68.13
46379;BME280;32084;42.254;22.744;2023-03-15T03:26:44;93998.25;;;6.59;68.75
46379;BME280;32084;42.254;22.744;2023-03-15T03:29:13;94003.22;;;6.54;69.23
46379;BME280;32084;42.254;22.744;2023-03-15T03:31:42;93999.44;;;6.57;68.60
46379;BME280;32084;42.254;22.744;2023-03-15T03:34:09;93992.44;;;6.48;69.49
46379;BME280;32084;42.254;22.744;2023-03-15T03:36:36;93986.41;;;6.13;69.83
46379;BME280;32084;42.254;22.744;2023-03-15T03:39:02;93982.09;;;6.12;69.91
46379;BME280;32084;42.254;22.744;2023-03-15T03:41:29;93990.56;;;6.23;70.48
46379;BME280;32084;42.254;22.744;2023-03-15T03:43:55;93988.78;;;6.32;71.30
46379;BME280;32084;42.254;22.744;2023-03-15T03:46:21;93983.78;;;6.37;71.01
46379;BME280;32084;42.254;22.744;2023-03-15T03:48:47;93985.75;;;6.19;70.92
46379;BME280;32084;42.254;22.744;2023-03-15T03:51:13;93982.41;;;6.00;71.98
46379;BME280;32084;42.254;22.744;2023-03-15T03:53:39;93979.75;;;6.09;71.72
46379;BME280;32084;42.254;22.744;2023-03-15T03:56:05;93980.13;;;6.22;71.81
46379;BME280;32084;42.254;22.744;2023-03-15T03:58:31;93982.28;;;6.27;71.68
46379;BME280;32084;42.254;22.744;2023-03-15T04:00:58;93978.13;;;6.24;70.83
46379;BME280;32084;42.254;22.744;2023-03-15T04:03:24;93981.78;;;6.31;70.95
46379;BME280;32084;42.254;22.744;2023-03-15T04:05:52;93977.81;;;6.35;70.24
46379;BME280;32084;42.254;22.744;2023-03-15T04:08:19;93979.66;;;6.35;70.78
46379;BME280;32084;42.254;22.744;2023-03-15T04:10:48;93968.16;;;6.10;72.13
46379;BME280;32084;42.254;22.744;2023-03-15T04:13:14;93959.03;;;6.12;71.84
46379;BME280;32084;42.254;22.744;2023-03-15T04:15:40;93956.72;;;6.17;71.66
46379;BME280;32084;42.254;22.744;2023-03-15T04:18:06;93957.41;;;6.19;71.42
46379;BME280;32084;42.254;22.744;2023-03-15T04:20:32;93964.19;;;6.14;72.18
46379;BME280;32084;42.254;22.744;2023-03-15T04:22:59;93958.13;;;5.87;72.65
46379;BME280;32084;42.254;22.744;2023-03-15T04:25:25;93958.09;;;5.79;72.57
46379;BME280;32084;42.254;22.744;2023-03-15T04:27:52;93948.50;;;5.86;72.13
46379;BME280;32084;42.254;22.744;2023-03-15T04:30:25;93946.84;;;5.93;71.70
46379;BME280;32084;42.254;22.744;2023-03-15T04:32:52;93948.84;;;5.91;72.02
46379;BME280;32084;42.254;22.744;2023-03-15T04:35:24;93942.06;;;5.89;72.15
46379;BME280;32084;42.254;22.744;2023-03-15T04:37:50;93955.47;;;5.87;72.09
46379;BME280;32084;42.254;22.744;2023-03-15T04:40:16;93961.66;;;5.61;72.60
46379;BME280;32084;42.254;22.744;2023-03-15T04:42:42;93957.34;;;5.52;72.40
46379;BME280;32084;42.254;22.744;2023-03-15T04:45:09;93955.97;;;5.48;72.75
46379;BME280;32084;42.254;22.744;2023-03-15T04:47:36;93956.84;;;5.48;72.56
46379;BME280;32084;42.254;22.744;2023-03-15T04:50:02;93970.75;;;5.16;73.30
46379;BME280;32084;42.254;22.744;2023-03-15T04:52:28;93966.50;;;4.97;72.97
46379;BME280;32084;42.254;22.744;2023-03-15T04:54:54;93962.59;;;4.83;73.97
46379;BME280;32084;42.254;22.744;2023-03-15T04:57:20;93968.78;;;4.92;74.37
46379;BME280;32084;42.254;22.744;2023-03-15T04:59:46;93974.38;;;5.15;74.00
46379;BME280;32084;42.254;22.744;2023-03-15T05:02:12;93963.00;;;5.23;73.54
46379;BME280;32084;42.254;22.744;2023-03-15T05:04:38;93970.16;;;5.04;73.60
46379;BME280;32084;42.254;22.744;2023-03-15T05:07:04;93971.44;;;4.92;74.09
46379;BME280;32084;42.254;22.744;2023-03-15T05:09:30;93961.66;;;5.19;73.32
46379;BME280;32084;42.254;22.744;2023-03-15T05:12:03;93950.66;;;5.40;73.25
46379;BME280;32084;42.254;22.744;2023-03-15T05:14:29;93952.50;;;5.39;72.86
46379;BME280;32084;42.254;22.744;2023-03-15T05:16:55;93951.97;;;5.36;73.20
46379;BME280;32084;42.254;22.744;2023-03-15T05:19:23;93949.84;;;5.47;72.57
46379;BME280;32084;42.254;22.744;2023-03-15T05:25:11;93947.88;;;5.50;72.20
46379;BME280;32084;42.254;22.744;2023-03-15T05:27:37;93952.25;;;5.24;73.18
46379;BME280;32084;42.254;22.744;2023-03-15T05:30:05;93958.44;;;5.33;73.73
46379;BME280;32084;42.254;22.744;2023-03-15T05:32:32;93969.47;;;5.63;73.42
46379;BME280;32084;42.254;22.744;2023-03-15T05:35:04;93966.09;;;5.87;72.67
46379;BME280;32084;42.254;22.744;2023-03-15T05:37:31;93961.56;;;5.71;73.83
46379;BME280;32084;42.254;22.744;2023-03-15T05:39:57;93964.00;;;5.64;74.02
46379;BME280;32084;42.254;22.744;2023-03-15T05:42:24;93968.06;;;5.85;73.13
46379;BME280;32084;42.254;22.744;2023-03-15T05:44:54;93965.66;;;6.08;72.36
46379;BME280;32084;42.254;22.744;2023-03-15T05:47:20;93969.22;;;6.41;70.93
46379;BME280;32084;42.254;22.744;2023-03-15T05:49:47;93980.81;;;6.73;69.73
46379;BME280;32084;42.254;22.744;2023-03-15T05:52:13;93971.03;;;6.98;69.41
46379;BME280;32084;42.254;22.744;2023-03-15T05:54:39;93962.88;;;7.08;69.21
46379;BME280;32084;42.254;22.744;2023-03-15T05:57:05;93963.50;;;7.18;70.20
46379;BME280;32084;42.254;22.744;2023-03-15T05:59:34;93970.78;;;7.24;70.44
46379;BME280;32084;42.254;22.744;2023-03-15T06:02:00;93966.31;;;7.33;69.84
46379;BME280;32084;42.254;22.744;2023-03-15T06:04:26;93958.97;;;7.35;68.49
46379;BME280;32084;42.254;22.744;2023-03-15T06:06:52;93955.13;;;7.38;69.31
46379;BME280;32084;42.254;22.744;2023-03-15T06:09:18;93958.63;;;7.47;68.86
46379;BME280;32084;42.254;22.744;2023-03-15T06:11:44;93963.25;;;7.53;68.04
46379;BME280;32084;42.254;22.744;2023-03-15T06:14:11;93965.03;;;7.60;67.21
46379;BME280;32084;42.254;22.744;2023-03-15T06:16:37;93963.19;;;7.69;67.69
46379;BME280;32084;42.254;22.744;2023-03-15T06:19:03;93958.47;;;7.79;67.65
46379;BME280;32084;42.254;22.744;2023-03-15T06:21:29;93964.00;;;7.70;68.24
46379;BME280;32084;42.254;22.744;2023-03-15T06:23:55;93972.94;;;7.85;67.84
46379;BME280;32084;42.254;22.744;2023-03-15T06:26:21;93967.75;;;7.92;68.05
46379;BME280;32084;42.254;22.744;2023-03-15T06:28:47;93961.59;;;7.91;68.16
46379;BME280;32084;42.254;22.744;2023-03-15T06:31:14;93964.28;;;7.91;68.25
46379;BME280;32084;42.254;22.744;2023-03-15T06:33:40;93974.16;;;8.06;66.33
46379;BME280;32084;42.254;22.744;2023-03-15T06:36:06;93980.63;;;8.11;66.50
46379;BME280;32084;42.254;22.744;2023-03-15T06:38:32;93982.81;;;8.08;67.37
46379;BME280;32084;42.254;22.744;2023-03-15T06:40:59;93981.72;;;7.94;67.96
46379;BME280;32084;42.254;22.744;2023-03-15T06:43:26;93978.41;;;7.92;68.39
46379;BME280;32084;42.254;22.744;2023-03-15T06:45:52;93978.31;;;8.08;68.10
46379;BME280;32084;42.254;22.744;2023-03-15T06:48:20;93978.44;;;8.15;66.97
46379;BME280;32084;42.254;22.744;2023-03-15T06:50:47;93980.13;;;8.16;67.75
46379;BME280;32084;42.254;22.744;2023-03-15T06:53:13;93975.13;;;8.13;67.78
46379;BME280;32084;42.254;22.744;2023-03-15T06:55:39;93988.28;;;8.14;67.15
46379;BME280;32084;42.254;22.744;2023-03-15T06:58:05;93981.69;;;8.33;66.86
46379;BME280;32084;42.254;22.744;2023-03-15T07:00:31;93973.56;;;8.58;65.93
46379;BME280;32084;42.254;22.744;2023-03-15T07:02:57;93963.94;;;8.72;64.96
46379;BME280;32084;42.254;22.744;2023-03-15T07:05:23;93962.63;;;8.91;63.69
46379;BME280;32084;42.254;22.744;2023-03-15T07:07:49;93961.94;;;9.12;62.81
46379;BME280;32084;42.254;22.744;2023-03-15T07:10:16;93973.41;;;9.12;63.10
46379;BME280;32084;42.254;22.744;2023-03-15T07:12:42;93967.44;;;9.10;63.55
46379;BME280;32084;42.254;22.744;2023-03-15T07:15:08;93967.06;;;8.98;63.75
46379;BME280;32084;42.254;22.744;2023-03-15T07:17:34;93981.88;;;9.01;63.10
46379;BME280;32084;42.254;22.744;2023-03-15T07:20:00;93972.31;;;9.07;62.97
46379;BME280;32084;42.254;22.744;2023-03-15T07:22:26;93971.56;;;8.98;63.92
46379;BME280;32084;42.254;22.744;2023-03-15T07:24:52;93966.06;;;8.99;63.13
46379;BME280;32084;42.254;22.744;2023-03-15T07:27:18;93961.91;;;8.97;63.70
46379;BME280;32084;42.254;22.744;2023-03-15T07:29:44;93964.50;;;9.05;63.70
46379;BME280;32084;42.254;22.744;2023-03-15T07:32:10;93962.09;;;9.10;63.23
46379;BME280;32084;42.254;22.744;2023-03-15T07:34:37;93955.22;;;9.01;62.79
46379;BME280;32084;42.254;22.744;2023-03-15T07:37:03;93953.47;;;9.08;63.74
46379;BME280;32084;42.254;22.744;2023-03-15T07:39:29;93958.28;;;9.13;63.83
46379;BME280;32084;42.254;22.744;2023-03-15T07:41:57;93954.69;;;9.21;63.98
46379;BME280;32084;42.254;22.744;2023-03-15T07:44:24;93953.53;;;9.68;62.86
46379;BME280;32084;42.254;22.744;2023-03-15T07:46:50;93962.59;;;9.88;62.20
46379;BME280;32084;42.254;22.744;2023-03-15T07:49:16;93960.59;;;9.90;61.99
46379;BME280;32084;42.254;22.744;2023-03-15T07:51:43;93963.97;;;9.99;62.27
46379;BME280;32084;42.254;22.744;2023-03-15T07:54:09;93959.78;;;9.60;60.99
46379;BME280;32084;42.254;22.744;2023-03-15T07:56:35;93951.47;;;9.40;63.81
46379;BME280;32084;42.254;22.744;2023-03-15T07:59:01;93964.53;;;9.50;63.09
46379;BME280;32084;42.254;22.744;2023-03-15T08:01:27;93950.38;;;9.49;62.22
46379;BME280;32084;42.254;22.744;2023-03-15T08:03:53;93957.47;;;9.42;62.75
46379;BME280;32084;42.254;22.744;2023-03-15T08:06:19;93947.06;;;9.32;62.36
46379;BME280;32084;42.254;22.744;2023-03-15T08:08:45;93941.16;;;9.37;63.66
46379;BME280;32084;42.254;22.744;2023-03-15T08:11:11;93939.53;;;9.36;62.59
46379;BME280;32084;42.254;22.744;2023-03-15T08:13:37;93940.72;;;9.48;62.26
46379;BME280;32084;42.254;22.744;2023-03-15T08:16:04;93945.41;;;9.61;61.51
46379;BME280;32084;42.254;22.744;2023-03-15T08:18:30;93947.53;;;9.66;61.39
46379;BME280;32084;42.254;22.744;2023-03-15T08:20:56;93944.94;;;9.57;60.81
46379;BME280;32084;42.254;22.744;2023-03-15T08:23:23;93939.63;;;9.57;60.84
46379;BME280;32084;42.254;22.744;2023-03-15T08:25:50;93935.72;;;9.90;60.21
46379;BME280;32084;42.254;22.744;2023-03-15T08:28:16;93927.97;;;10.10;60.07
46379;BME280;32084;42.254;22.744;2023-03-15T08:30:42;93931.53;;;10.17;59.53
46379;BME280;32084;42.254;22.744;2023-03-15T08:33:08;93939.63;;;10.09;59.36
46379;BME280;32084;42.254;22.744;2023-03-15T08:35:35;93932.91;;;10.13;59.21
46379;BME280;32084;42.254;22.744;2023-03-15T08:38:01;93937.06;;;10.30;58.68
46379;BME280;32084;42.254;22.744;2023-03-15T08:40:29;93936.16;;;10.45;58.11
46379;BME280;32084;42.254;22.744;2023-03-15T08:42:56;93938.59;;;10.61;57.77
46379;BME280;32084;42.254;22.744;2023-03-15T08:45:23;93938.59;;;10.61;57.70
46379;BME280;32084;42.254;22.744;2023-03-15T08:47:53;93937.19;;;10.44;58.02
46379;BME280;32084;42.254;22.744;2023-03-15T08:50:19;93934.16;;;10.32;58.33
46379;BME280;32084;42.254;22.744;2023-03-15T08:52:45;93937.69;;;10.32;58.98
46379;BME280;32084;42.254;22.744;2023-03-15T08:55:11;93933.88;;;10.42;58.70
46379;BME280;32084;42.254;22.744;2023-03-15T08:57:39;93927.78;;;10.48;58.45
46379;BME280;32084;42.254;22.744;2023-03-15T09:00:05;93933.50;;;10.66;58.11
46379;BME280;32084;42.254;22.744;2023-03-15T09:02:39;93922.22;;;10.71;57.96
46379;BME280;32084;42.254;22.744;2023-03-15T09:05:05;93927.28;;;10.59;57.92
46379;BME280;32084;42.254;22.744;2023-03-15T09:07:32;93928.09;;;10.60;58.83
46379;BME280;32084;42.254;22.744;2023-03-15T09:09:58;93927.22;;;10.74;58.64
46379;BME280;32084;42.254;22.744;2023-03-15T09:12:24;93925.72;;;10.93;57.59
46379;BME280;32084;42.254;22.744;2023-03-15T09:14:50;93924.59;;;11.09;57.26
46379;BME280;32084;42.254;22.744;2023-03-15T09:17:16;93908.03;;;11.20;57.10
46379;BME280;32084;42.254;22.744;2023-03-15T09:19:42;93913.97;;;11.50;56.39
46379;BME280;32084;42.254;22.744;2023-03-15T09:22:08;93921.22;;;11.57;54.84
46379;BME280;32084;42.254;22.744;2023-03-15T09:24:34;93910.13;;;11.60;55.67
46379;BME280;32084;42.254;22.744;2023-03-15T09:27:00;93915.47;;;11.60;54.61
46379;BME280;32084;42.254;22.744;2023-03-15T09:29:26;93905.25;;;11.77;55.52
46379;BME280;32084;42.254;22.744;2023-03-15T09:31:53;93911.06;;;11.87;55.21
46379;BME280;32084;42.254;22.744;2023-03-15T09:34:19;93907.97;;;11.83;55.39
46379;BME280;32084;42.254;22.744;2023-03-15T09:36:45;93903.03;;;11.80;55.77
46379;BME280;32084;42.254;22.744;2023-03-15T09:39:21;93904.53;;;11.89;55.16
46379;BME280;32084;42.254;22.744;2023-03-15T09:41:51;93902.31;;;12.00;55.18
46379;BME280;32084;42.254;22.744;2023-03-15T09:45:04;93902.53;;;12.05;54.06
46379;BME280;32084;42.254;22.744;2023-03-15T09:52:41;93909.19;;;12.29;54.56
46379;BME280;32084;42.254;22.744;2023-03-15T09:55:13;93907.13;;;12.31;54.01
46379;BME280;32084;42.254;22.744;2023-03-15T09:57:46;93905.66;;;12.15;54.39
46379;BME280;32084;42.254;22.744;2023-03-15T10:00:20;93907.94;;;12.18;54.00
46379;BME280;32084;42.254;22.744;2023-03-15T10:02:48;93900.88;;;12.04;53.79
46379;BME280;32084;42.254;22.744;2023-03-15T10:05:31;93905.00;;;12.06;54.26
46379;BME280;32084;42.254;22.744;2023-03-15T10:07:57;93905.00;;;12.06;54.80
46379;BME280;32084;42.254;22.744;2023-03-15T10:10:25;93902.75;;;12.10;52.87
46379;BME280;32084;42.254;22.744;2023-03-15T10:15:58;93907.22;;;11.96;53.86
46379;BME280;32084;42.254;22.744;2023-03-15T10:20:55;93912.84;;;12.08;53.53
46379;BME280;32084;42.254;22.744;2023-03-15T10:23:29;93905.84;;;12.07;53.35
46379;BME280;32084;42.254;22.744;2023-03-15T10:25:59;93914.53;;;12.22;52.64
46379;BME280;32084;42.254;22.744;2023-03-15T10:28:29;93915.44;;;12.49;52.48
46379;BME280;32084;42.254;22.744;2023-03-15T10:30:58;93912.16;;;12.54;51.68
46379;BME280;32084;42.254;22.744;2023-03-15T10:33:37;93910.88;;;12.43;51.45
46379;BME280;32084;42.254;22.744;2023-03-15T10:36:17;93900.78;;;12.39;50.47
46379;BME280;32084;42.254;22.744;2023-03-15T10:38:44;93899.75;;;12.53;51.52
46379;BME280;32084;42.254;22.744;2023-03-15T10:41:11;93884.13;;;12.70;50.99
46379;BME280;32084;42.254;22.744;2023-03-15T10:43:39;93888.66;;;12.76;49.93
46379;BME280;32084;42.254;22.744;2023-03-15T10:46:10;93885.31;;;12.47;49.93
46379;BME280;32084;42.254;22.744;2023-03-15T10:48:37;93889.22;;;12.38;49.85
46379;BME280;32084;42.254;22.744;2023-03-15T10:51:23;93890.47;;;12.36;50.62
46379;BME280;32084;42.254;22.744;2023-03-15T10:56:23;93867.53;;;12.20;51.18
46379;BME280;32084;42.254;22.744;2023-03-15T10:58:51;93869.59;;;12.24;51.85
46379;BME280;32084;42.254;22.744;2023-03-15T11:01:28;93872.69;;;12.15;51.91
46379;BME280;32084;42.254;22.744;2023-03-15T11:04:16;93872.47;;;12.16;52.45
46379;BME280;32084;42.254;22.744;2023-03-15T11:06:46;93876.25;;;11.87;53.44
46379;BME280;32084;42.254;22.744;2023-03-15T11:09:20;93865.00;;;11.57;54.56
46379;BME280;32084;42.254;22.744;2023-03-15T11:14:21;93868.16;;;11.32;56.87
46379;BME280;32084;42.254;22.744;2023-03-15T11:16:51;93878.25;;;11.30;56.88
46379;BME280;32084;42.254;22.744;2023-03-15T11:19:19;93877.25;;;11.38;57.69
46379;BME280;32084;42.254;22.744;2023-03-15T11:21:45;93877.38;;;11.58;57.28
46379;BME280;32084;42.254;22.744;2023-03-15T11:24:24;93872.22;;;11.63;57.66
46379;BME280;32084;42.254;22.744;2023-03-15T11:26:51;93875.25;;;11.46;57.52
46379;BME280;32084;42.254;22.744;2023-03-15T11:29:34;93876.50;;;11.50;57.58
46379;BME280;32084;42.254;22.744;2023-03-15T11:32:09;93879.41;;;11.21;57.67
46379;BME280;32084;42.254;22.744;2023-03-15T11:34:38;93876.53;;;10.87;59.13
46379;BME280;32084;42.254;22.744;2023-03-15T11:37:09;93865.63;;;10.61;60.50
46379;BME280;32084;42.254;22.744;2023-03-15T11:39:45;93874.59;;;10.53;62.20
46379;BME280;32084;42.254;22.744;2023-03-15T11:45:08;93873.63;;;10.03;63.20
46379;BME280;32084;42.254;22.744;2023-03-15T11:47:55;93871.78;;;10.03;63.75
46379;BME280;32084;42.254;22.744;2023-03-15T11:50:24;93878.72;;;9.97;64.77
46379;BME280;32084;42.254;22.744;2023-03-15T11:52:50;93871.09;;;9.94;65.76
46379;BME280;32084;42.254;22.744;2023-03-15T11:55:22;93869.81;;;9.90;67.32
46379;BME280;32084;42.254;22.744;2023-03-15T11:57:49;93870.34;;;10.01;67.66
46379;BME280;32084;42.254;22.744;2023-03-15T12:03:22;93864.31;;;10.13;66.15
46379;BME280;32084;42.254;22.744;2023-03-15T12:05:50;93869.88;;;10.33;66.20
46379;BME280;32084;42.254;22.744;2023-03-15T12:10:44;93868.81;;;10.13;65.28
46379;BME280;32084;42.254;22.744;2023-03-15T12:13:34;93866.00;;;10.00;65.74
46379;BME280;32084;42.254;22.744;2023-03-15T12:16:00;93876.19;;;10.11;65.19
46379;BME280;32084;42.254;22.744;2023-03-15T12:18:32;93880.44;;;10.05;65.18
46379;BME280;32084;42.254;22.744;2023-03-15T12:21:12;93869.03;;;10.11;64.74
46379;BME280;32084;42.254;22.744;2023-03-15T12:23:43;93873.38;;;10.34;65.14
46379;BME280;32084;42.254;22.744;2023-03-15T12:28:41;93855.78;;;10.40;63.51
46379;BME280;32084;42.254;22.744;2023-03-15T12:31:14;93851.28;;;10.47;62.95
46379;BME280;32084;42.254;22.744;2023-03-15T12:36:17;93855.94;;;10.60;62.72
46379;BME280;32084;42.254;22.744;2023-03-15T12:38:52;93852.69;;;10.64;62.96
46379;BME280;32084;42.254;22.744;2023-03-15T12:41:38;93853.06;;;10.61;62.70
46379;BME280;32084;42.254;22.744;2023-03-15T12:44:18;93847.97;;;10.66;62.22
46379;BME280;32084;42.254;22.744;2023-03-15T12:52:12;93842.41;;;10.68;62.92
46379;BME280;32084;42.254;22.744;2023-03-15T12:54:40;93833.88;;;10.51;62.81
46379;BME280;32084;42.254;22.744;2023-03-15T12:57:11;93834.50;;;10.53;64.11
46379;BME280;32084;42.254;22.744;2023-03-15T13:02:18;93844.66;;;10.92;62.57
46379;BME280;32084;42.254;22.744;2023-03-15T13:04:47;93845.84;;;10.83;63.14
46379;BME280;32084;42.254;22.744;2023-03-15T13:07:26;93859.19;;;10.55;63.07
46379;BME280;32084;42.254;22.744;2023-03-15T13:12:48;93866.97;;;10.13;64.24
46379;BME280;32084;42.254;22.744;2023-03-15T13:15:18;93858.44;;;10.03;64.72
46379;BME280;32084;42.254;22.744;2023-03-15T13:17:50;93849.59;;;10.03;64.93
46379;BME280;32084;42.254;22.744;2023-03-15T13:25:39;93862.13;;;10.39;63.21
46379;BME280;32084;42.254;22.744;2023-03-15T13:28:24;93863.19;;;10.44;62.96
46379;BME280;32084;42.254;22.744;2023-03-15T13:30:55;93858.34;;;10.54;63.04
46379;BME280;32084;42.254;22.744;2023-03-15T13:33:28;93860.06;;;10.62;62.99
46379;BME280;32084;42.254;22.744;2023-03-15T13:35:57;93866.69;;;10.66;63.24
46379;BME280;32084;42.254;22.744;2023-03-15T13:40:58;93860.25;;;10.39;63.57
46379;BME280;32084;42.254;22.744;2023-03-15T13:43:26;93857.94;;;10.51;64.88
46379;BME280;32084;42.254;22.744;2023-03-15T13:45:55;93858.22;;;10.63;63.91
46379;BME280;32084;42.254;22.744;2023-03-15T13:48:21;93851.50;;;10.45;63.81
46379;BME280;32084;42.254;22.744;2023-03-15T13:50:48;93852.72;;;10.28;63.66
46379;BME280;32084;42.254;22.744;2023-03-15T13:53:17;93856.34;;;10.20;64.22
46379;BME280;32084;42.254;22.744;2023-03-15T13:55:48;93862.09;;;10.17;68.14
46379;BME280;32084;42.254;22.744;2023-03-15T13:58:14;93862.66;;;10.12;67.87
46379;BME280;32084;42.254;22.744;2023-03-15T14:00:40;93861.69;;;10.20;67.90